createdAt,value
2016-06-01T00:00:09.944Z,99.99
2016-06-01T00:01:10.025Z,99.99
2016-06-01T00:02:09.997Z,99.99
2016-06-01T00:03:10.016Z,99.99
2016-06-01T00:04:11.455Z,99.99
2016-06-01T00:05:10.067Z,99.99
2016-06-01T00:06:22.835Z,99.99
2016-06-01T00:07:09.963Z,99.99
2016-06-01T00:08:10.154Z,99.99
2016-06-01T00:09:10.359Z,99.99
2016-06-01T00:10:41.587Z,99.99
2016-06-01T00:11:28.428Z,99.99
2016-06-01T00:12:28.472Z,99.99
2016-06-01T00:13:28.518Z,99.99
2016-06-01T00:14:28.577Z,99.99
2016-06-01T00:15:28.608Z,99.99
2016-06-01T00:16:28.651Z,99.99
2016-06-01T00:17:28.679Z,99.99
2016-06-01T00:18:28.769Z,99.99
2016-06-01T00:19:28.735Z,99.99
2016-06-01T00:20:28.852Z,99.99
2016-06-01T00:21:28.795Z,99.99
2016-06-01T00:22:31.911Z,99.99
2016-06-01T00:23:28.995Z,99.99
2016-06-01T00:24:28.971Z,99.99
2016-06-01T00:25:31.927Z,99.99
2016-06-01T00:26:41.634Z,99.99
2016-06-01T00:27:29.029Z,99.99
2016-06-01T00:28:54.662Z,99.99
2016-06-01T00:29:28.974Z,99.99
2016-06-01T00:31:00.293Z,99.99
2016-06-01T00:31:44.214Z,99.99
2016-06-01T00:32:44.108Z,99.99
2016-06-01T00:34:03.473Z,99.99
2016-06-01T00:34:44.302Z,99.99
2016-06-01T00:36:09.839Z,99.99
2016-06-01T00:36:44.339Z,99.99
2016-06-01T00:37:44.373Z,99.99
2016-06-01T00:38:44.500Z,99.99
2016-06-01T00:39:45.878Z,99.99
2016-06-01T00:40:44.428Z,99.99
2016-06-01T00:41:47.636Z,99.99
2016-06-01T00:42:57.217Z,99.99
2016-06-01T00:43:44.483Z,99.99
2016-06-01T00:44:44.516Z,99.99
2016-06-01T00:45:47.663Z,99.99
2016-06-01T00:46:47.696Z,99.99
2016-06-01T00:47:47.715Z,99.99
2016-06-01T00:48:47.796Z,99.99
2016-06-01T00:49:49.174Z,99.99
2016-06-01T00:50:47.629Z,99.99
2016-06-01T00:51:47.788Z,99.99
2016-06-01T00:52:47.822Z,99.99
2016-06-01T00:53:47.684Z,99.99
2016-06-01T00:54:47.718Z,99.99
2016-06-01T00:55:47.893Z,99.99
2016-06-01T00:56:47.754Z,99.99
2016-06-01T00:57:47.929Z,99.99
2016-06-01T00:58:48.198Z,99.99
2016-06-01T00:59:47.981Z,99.99
2016-06-01T01:00:48.000Z,99.99
2016-06-01T01:01:51.049Z,99.99
2016-06-01T01:02:48.052Z,99.99
2016-06-01T01:04:00.789Z,99.99
2016-06-01T01:04:48.089Z,99.99
2016-06-01T01:05:48.106Z,99.99
2016-06-01T01:07:07.344Z,99.99
2016-06-01T01:07:51.284Z,99.99
2016-06-01T01:09:17.006Z,99.99
2016-06-01T01:09:51.336Z,99.99
2016-06-01T01:10:51.355Z,99.99
2016-06-01T01:12:03.951Z,99.99
2016-06-01T01:12:51.250Z,99.99
2016-06-01T01:13:51.425Z,99.99
2016-06-01T01:14:51.428Z,99.99
2016-06-01T01:15:51.478Z,99.99
2016-06-01T01:16:51.324Z,99.99
2016-06-01T01:17:51.608Z,99.99
2016-06-01T01:18:51.532Z,99.99
2016-06-01T01:19:51.566Z,99.99
2016-06-01T01:21:10.772Z,99.99
2016-06-01T01:21:51.588Z,99.99
2016-06-01T01:22:51.621Z,99.99
2016-06-01T01:24:04.733Z,99.99
2016-06-01T01:24:53.080Z,99.99
2016-06-01T01:25:51.785Z,99.99
2016-06-01T01:26:51.710Z,99.99
2016-06-01T01:27:51.729Z,99.99
2016-06-01T01:28:51.763Z,99.99
2016-06-01T01:29:51.765Z,99.99
2016-06-01T01:30:51.814Z,99.99
2016-06-01T01:31:51.817Z,99.99
2016-06-01T01:32:51.836Z,99.99
2016-06-01T01:33:51.854Z,99.99
2016-06-01T01:35:11.075Z,99.99
2016-06-01T01:35:51.906Z,99.99
2016-06-01T01:36:51.784Z,99.99
2016-06-01T01:37:51.787Z,99.99
2016-06-01T01:38:51.820Z,99.99
2016-06-01T01:39:51.995Z,99.99
2016-06-01T01:40:51.857Z,99.99
2016-06-01T01:41:51.922Z,99.99
2016-06-01T01:42:52.081Z,99.99
2016-06-01T01:44:04.678Z,99.99
2016-06-01T01:44:52.086Z,99.99
2016-06-01T01:45:52.167Z,99.99
2016-06-01T01:46:52.155Z,99.99
2016-06-01T01:47:52.017Z,99.99
2016-06-01T01:48:52.191Z,99.99
2016-06-01T01:49:52.225Z,99.99
2016-06-01T01:50:52.228Z,99.99
2016-06-01T01:51:52.277Z,99.99
2016-06-01T01:53:05.061Z,99.99
2016-06-01T01:53:53.110Z,99.99
2016-06-01T01:54:52.363Z,99.99
2016-06-01T01:55:52.351Z,99.99
2016-06-01T01:56:52.369Z,99.99
2016-06-01T01:58:05.121Z,99.99
2016-06-01T01:59:17.937Z,99.99
2016-06-01T01:59:52.440Z,99.99
2016-06-01T02:00:52.473Z,99.99
2016-06-01T02:01:52.476Z,99.99
2016-06-01T02:02:52.509Z,99.99
2016-06-01T02:03:52.529Z,99.99
2016-06-01T02:04:52.562Z,99.99
2016-06-01T02:05:54.003Z,99.99
2016-06-01T02:06:52.599Z,99.99
2016-06-01T02:07:52.711Z,99.99
2016-06-01T02:09:06.213Z,99.99
2016-06-01T02:09:52.670Z,99.99
2016-06-01T02:10:52.688Z,99.99
2016-06-01T02:11:52.722Z,99.99
2016-06-01T02:12:52.725Z,99.99
2016-06-01T02:13:52.742Z,99.99
2016-06-01T02:14:52.792Z,99.99
2016-06-01T02:15:52.795Z,99.99
2016-06-01T02:16:54.236Z,99.99
2016-06-01T02:17:52.847Z,99.99
2016-06-01T02:18:55.913Z,99.99
2016-06-01T02:19:54.290Z,99.99
2016-06-01T02:20:52.902Z,99.99
2016-06-01T02:21:52.936Z,99.99
2016-06-01T02:23:05.704Z,99.99
2016-06-01T02:23:52.974Z,99.99
2016-06-01T02:25:18.679Z,99.99
2016-06-01T02:26:02.587Z,99.99
2016-06-01T02:27:02.606Z,99.99
2016-06-01T02:28:02.624Z,99.99
2016-06-01T02:29:15.376Z,99.99
2016-06-01T02:30:02.677Z,99.99
2016-06-01T02:31:21.899Z,99.99
2016-06-01T02:32:02.712Z,99.99
2016-06-01T02:33:02.748Z,99.99
2016-06-01T02:34:04.218Z,99.99
2016-06-01T02:35:15.518Z,99.99
2016-06-01T02:36:02.802Z,99.99
2016-06-01T02:37:34.117Z,99.99
2016-06-01T02:38:05.885Z,99.99
2016-06-01T02:39:02.872Z,99.99
2016-06-01T02:40:18.109Z,99.99
2016-06-01T02:41:18.159Z,99.99
2016-06-01T02:42:30.787Z,99.99
2016-06-01T02:43:18.212Z,99.99
2016-06-01T02:44:18.277Z,99.99
2016-06-01T02:45:21.247Z,99.99
2016-06-01T02:46:18.266Z,99.99
2016-06-01T02:47:18.269Z,99.99
2016-06-01T02:48:18.288Z,99.99
2016-06-01T02:49:21.337Z,99.99
2016-06-01T02:50:18.339Z,99.99
2016-06-01T02:51:18.373Z,99.99
2016-06-01T02:52:18.391Z,99.99
2016-06-01T02:53:18.458Z,99.99
2016-06-01T02:54:21.382Z,99.99
2016-06-01T02:55:18.463Z,99.99
2016-06-01T02:56:18.481Z,99.99
2016-06-01T02:57:18.562Z,99.99
2016-06-01T02:58:18.517Z,99.99
2016-06-01T02:59:18.536Z,99.99
2016-06-01T03:00:31.288Z,99.99
2016-06-01T03:01:31.323Z,99.99
2016-06-01T03:02:18.607Z,99.99
2016-06-01T03:03:44.156Z,99.99
2016-06-01T03:04:18.673Z,99.99
2016-06-01T03:05:18.662Z,99.99
2016-06-01T03:06:18.789Z,99.99
2016-06-01T03:07:20.167Z,99.99
2016-06-01T03:08:18.763Z,99.99
2016-06-01T03:09:18.844Z,99.99
2016-06-01T03:10:20.034Z,99.99
2016-06-01T03:11:18.645Z,99.99
2016-06-01T03:12:18.821Z,99.99
2016-06-01T03:13:18.839Z,99.99
2016-06-01T03:14:18.873Z,99.99
2016-06-01T03:15:38.094Z,99.99
2016-06-01T03:16:18.925Z,99.99
2016-06-01T03:17:18.944Z,99.99
2016-06-01T03:18:18.962Z,99.99
2016-06-01T03:19:18.980Z,99.99
2016-06-01T03:20:19.014Z,99.99
2016-06-01T03:21:18.970Z,99.99
2016-06-01T03:22:38.254Z,99.99
2016-06-01T03:23:22.194Z,99.99
2016-06-01T03:24:22.385Z,99.99
2016-06-01T03:25:22.263Z,99.99
2016-06-01T03:26:22.265Z,99.99
2016-06-01T03:27:22.283Z,99.99
2016-06-01T03:28:22.302Z,99.99
2016-06-01T03:29:22.335Z,99.99
2016-06-01T03:30:35.119Z,99.99
2016-06-01T03:31:22.232Z,99.99
2016-06-01T03:32:44.657Z,99.99
2016-06-01T03:33:44.643Z,99.99
2016-06-01T03:34:44.661Z,99.99
2016-06-01T03:35:44.679Z,99.99
2016-06-01T03:36:44.698Z,99.99
2016-06-01T03:37:44.732Z,99.99
2016-06-01T03:38:45.110Z,99.99
2016-06-01T03:39:57.489Z,99.99
2016-06-01T03:40:57.523Z,99.99
2016-06-01T03:41:44.867Z,99.99
2016-06-01T03:42:44.839Z,99.99
2016-06-01T03:44:04.064Z,99.99
2016-06-01T03:44:44.876Z,99.99
2016-06-01T03:45:44.942Z,99.99
2016-06-01T03:46:57.649Z,99.99
2016-06-01T03:47:46.492Z,99.99
2016-06-01T03:48:44.964Z,99.99
2016-06-01T03:49:44.967Z,99.99
2016-06-01T03:50:44.844Z,99.99
2016-06-01T03:51:45.004Z,99.99
2016-06-01T03:52:45.037Z,99.99
2016-06-01T03:53:44.931Z,99.99
2016-06-01T03:54:45.091Z,99.99
2016-06-01T03:55:44.968Z,99.99
2016-06-01T03:56:46.549Z,99.99
2016-06-01T03:57:45.161Z,99.99
2016-06-01T03:58:45.179Z,99.99
2016-06-01T03:59:45.197Z,99.99
2016-06-01T04:00:45.231Z,99.99
2016-06-01T04:01:45.234Z,99.99
2016-06-01T04:02:45.268Z,99.99
2016-06-01T04:03:46.693Z,99.99
2016-06-01T04:04:45.321Z,99.99
2016-06-01T04:05:48.369Z,99.99
2016-06-01T04:06:45.357Z,99.99
2016-06-01T04:07:45.376Z,99.99
2016-06-01T04:08:45.268Z,99.99
2016-06-01T04:09:45.443Z,99.99
2016-06-01T04:10:46.852Z,99.99
2016-06-01T04:11:58.154Z,99.99
2016-06-01T04:12:48.514Z,99.99
2016-06-01T04:14:11.190Z,99.99
2016-06-01T04:14:45.534Z,99.99
2016-06-01T04:17:00.808Z,99.99
2016-06-01T04:18:00.826Z,99.99
2016-06-01T04:19:00.860Z,99.99
2016-06-01T04:20:00.879Z,99.99
2016-06-01T04:21:13.631Z,99.99
2016-06-01T04:22:00.916Z,99.99
2016-06-01T04:23:00.949Z,99.99
2016-06-01T04:24:01.296Z,99.99
2016-06-01T04:25:02.391Z,99.99
2016-06-01T04:27:17.007Z,99.99
2016-06-01T04:28:17.025Z,99.99
2016-06-01T04:29:24.730Z,99.99
2016-06-01T04:30:17.078Z,99.99
2016-06-01T04:31:17.095Z,99.99
2016-06-01T04:32:17.146Z,99.99
2016-06-01T04:33:16.991Z,99.99
2016-06-01T04:34:29.901Z,99.99
2016-06-01T04:35:17.185Z,99.99
2016-06-01T04:36:17.203Z,99.99
2016-06-01T04:37:42.909Z,99.99
2016-06-01T04:38:24.787Z,99.99
2016-06-01T04:39:17.352Z,99.99
2016-06-01T04:40:42.979Z,99.99
2016-06-01T04:41:30.076Z,99.99
2016-06-01T04:42:17.359Z,99.99
2016-06-01T04:43:36.581Z,99.99
2016-06-01T04:44:21.850Z,99.99
2016-06-01T04:45:41.070Z,99.99
2016-06-01T04:46:21.761Z,99.99
2016-06-01T04:47:21.748Z,99.99
2016-06-01T04:48:21.953Z,99.99
2016-06-01T04:49:23.379Z,99.99
2016-06-01T04:50:34.553Z,99.99
2016-06-01T04:51:22.008Z,99.99
2016-06-01T04:52:22.028Z,99.99
2016-06-01T04:53:22.045Z,99.99
2016-06-01T04:54:22.110Z,99.99
2016-06-01T04:55:22.098Z,99.99
2016-06-01T04:56:22.132Z,99.99
2016-06-01T04:57:34.869Z,99.99
2016-06-01T04:58:22.168Z,99.99
2016-06-01T04:59:53.469Z,99.99
2016-06-01T05:00:22.221Z,99.99
2016-06-01T05:01:22.239Z,99.99
2016-06-01T05:02:22.101Z,99.99
2016-06-01T05:03:22.135Z,99.99
2016-06-01T05:04:35.107Z,99.99
2016-06-01T05:05:22.327Z,99.99
2016-06-01T05:06:22.362Z,99.99
2016-06-01T05:07:23.802Z,99.99
2016-06-01T05:08:22.258Z,99.99
2016-06-01T05:09:22.418Z,99.99
2016-06-01T05:10:23.888Z,99.99
2016-06-01T05:11:22.468Z,99.99
2016-06-01T05:12:22.346Z,99.99
2016-06-01T05:13:22.396Z,99.99
2016-06-01T05:14:22.570Z,99.99
2016-06-01T05:15:22.448Z,99.99
2016-06-01T05:16:22.592Z,99.99
2016-06-01T05:17:22.501Z,99.99
2016-06-01T05:18:22.659Z,99.99
2016-06-01T05:19:22.709Z,99.99
2016-06-01T05:20:22.697Z,99.99
2016-06-01T05:21:25.746Z,99.99
2016-06-01T05:22:22.748Z,99.99
2016-06-01T05:23:22.782Z,99.99
2016-06-01T05:24:23.551Z,99.99
2016-06-01T05:25:22.663Z,99.99
2016-06-01T05:26:22.853Z,99.99
2016-06-01T05:27:22.872Z,99.99
2016-06-01T05:28:25.936Z,99.99
2016-06-01T05:29:25.939Z,99.99
2016-06-01T05:30:22.927Z,99.99
2016-06-01T05:31:22.976Z,99.99
2016-06-01T05:32:35.729Z,99.99
2016-06-01T05:33:23.028Z,99.99
2016-06-01T05:34:42.280Z,99.99
2016-06-01T05:35:23.065Z,99.99
2016-06-01T05:36:24.490Z,99.99
2016-06-01T05:37:23.118Z,99.99
2016-06-01T05:38:35.870Z,99.99
2016-06-01T05:39:23.169Z,99.99
2016-06-01T05:40:23.171Z,99.99
2016-06-01T05:41:23.253Z,99.99
2016-06-01T05:42:23.271Z,99.99
2016-06-01T05:43:23.258Z,99.99
2016-06-01T05:44:36.042Z,99.99
2016-06-01T05:45:23.310Z,99.99
2016-06-01T05:46:23.345Z,99.99
2016-06-01T05:47:24.784Z,99.99
2016-06-01T05:48:23.381Z,99.99
2016-06-01T05:49:23.415Z,99.99
2016-06-01T05:50:24.840Z,99.99
2016-06-01T05:51:23.451Z,99.99
2016-06-01T05:52:23.486Z,99.99
2016-06-01T05:53:23.519Z,99.99
2016-06-01T05:54:23.413Z,99.99
2016-06-01T05:55:23.556Z,99.99
2016-06-01T05:56:23.590Z,99.99
2016-06-01T05:57:23.608Z,99.99
2016-06-01T05:58:25.033Z,99.99
2016-06-01T05:59:23.645Z,99.99
2016-06-01T06:00:23.664Z,99.99
2016-06-01T06:01:36.432Z,99.99
2016-06-01T06:02:23.716Z,99.99
2016-06-01T06:03:23.797Z,99.99
2016-06-01T06:04:23.611Z,99.99
2016-06-01T06:05:23.817Z,99.99
2016-06-01T06:06:23.820Z,99.99
2016-06-01T06:07:23.854Z,99.99
2016-06-01T06:08:23.716Z,99.99
2016-06-01T06:09:23.906Z,99.99
2016-06-01T06:10:26.815Z,99.99
2016-06-01T06:11:36.677Z,99.99
2016-06-01T06:12:23.837Z,99.99
2016-06-01T06:13:43.043Z,99.99
2016-06-01T06:14:39.810Z,99.99
2016-06-01T06:15:39.828Z,99.99
2016-06-01T06:16:39.847Z,99.99
2016-06-01T06:17:39.865Z,99.99
2016-06-01T06:18:39.883Z,99.99
2016-06-01T06:19:42.948Z,99.99
2016-06-01T06:20:39.951Z,99.99
2016-06-01T06:21:39.953Z,99.99
2016-06-01T06:22:43.019Z,99.99
2016-06-01T06:23:40.023Z,99.99
2016-06-01T06:24:40.040Z,99.99
2016-06-01T06:25:40.059Z,99.99
2016-06-01T06:26:40.092Z,99.99
2016-06-01T06:27:40.127Z,99.99
2016-06-01T06:28:40.129Z,99.99
2016-06-01T06:29:52.883Z,99.99
2016-06-01T06:30:52.916Z,99.99
2016-06-01T06:31:40.215Z,99.99
2016-06-01T06:32:40.233Z,99.99
2016-06-01T06:34:11.552Z,99.99
2016-06-01T06:34:55.349Z,99.99
2016-06-01T06:35:55.399Z,99.99
2016-06-01T06:36:55.416Z,99.99
2016-06-01T06:37:55.435Z,99.99
2016-06-01T06:38:56.890Z,99.99
2016-06-01T06:39:55.487Z,99.99
2016-06-01T06:40:55.505Z,99.99
2016-06-01T06:41:55.540Z,99.99
2016-06-01T06:43:14.732Z,99.99
2016-06-01T06:43:58.513Z,99.99
2016-06-01T06:44:58.532Z,99.99
2016-06-01T06:45:58.409Z,99.99
2016-06-01T06:47:00.006Z,99.99
2016-06-01T06:47:58.462Z,99.99
2016-06-01T06:48:58.651Z,99.99
2016-06-01T06:49:58.670Z,99.99
2016-06-01T06:51:00.126Z,99.99
2016-06-01T06:51:58.754Z,99.99
2016-06-01T06:52:58.740Z,99.99
2016-06-01T06:53:58.758Z,99.99
2016-06-01T06:54:58.777Z,99.99
2016-06-01T06:55:58.811Z,99.99
2016-06-01T06:56:58.830Z,99.99
2016-06-01T06:57:58.911Z,99.99
2016-06-01T06:58:58.726Z,99.99
2016-06-01T06:59:58.900Z,99.99
2016-06-01T07:00:58.949Z,99.99
2016-06-01T07:02:24.642Z,99.99
2016-06-01T07:02:58.814Z,99.99
2016-06-01T07:03:58.989Z,99.99
2016-06-01T07:05:02.133Z,99.99
2016-06-01T07:05:58.901Z,99.99
2016-06-01T07:06:59.122Z,99.99
2016-06-01T07:07:59.109Z,99.99
2016-06-01T07:08:59.128Z,99.99
2016-06-01T07:10:12.243Z,99.99
2016-06-01T07:11:11.901Z,99.99
2016-06-01T07:11:59.198Z,99.99
2016-06-01T07:13:24.735Z,99.99
2016-06-01T07:14:08.674Z,99.99
2016-06-01T07:15:08.865Z,99.99
2016-06-01T07:16:08.867Z,99.99
2016-06-01T07:17:08.933Z,99.99
2016-06-01T07:18:08.951Z,99.99
2016-06-01T07:19:08.954Z,99.99
2016-06-01T07:20:08.988Z,99.99
2016-06-01T07:21:08.834Z,99.99
2016-06-01T07:22:09.056Z,99.99
2016-06-01T07:23:09.058Z,99.99
2016-06-01T07:24:08.936Z,99.99
2016-06-01T07:25:21.845Z,99.99
2016-06-01T07:26:21.879Z,99.99
2016-06-01T07:27:09.147Z,99.99
2016-06-01T07:28:09.166Z,99.99
2016-06-01T07:29:09.215Z,99.99
2016-06-01T07:30:09.217Z,99.99
2016-06-01T07:31:09.283Z,99.99
2016-06-01T07:32:09.286Z,99.99
2016-06-01T07:33:09.336Z,99.99
2016-06-01T07:34:09.338Z,99.99
2016-06-01T07:35:09.372Z,99.99
2016-06-01T07:36:09.656Z,99.99
2016-06-01T07:37:28.611Z,99.99
2016-06-01T07:38:12.410Z,99.99
2016-06-01T07:39:13.023Z,99.99
2016-06-01T07:40:12.682Z,99.99
2016-06-01T07:41:12.669Z,99.99
2016-06-01T07:42:12.672Z,99.99
2016-06-01T07:43:12.535Z,99.99
2016-06-01T07:44:12.709Z,99.99
2016-06-01T07:45:12.757Z,99.99
2016-06-01T07:46:12.776Z,99.99
2016-06-01T07:47:12.810Z,94.71
2016-06-01T07:48:32.079Z,90.56
2016-06-01T07:49:25.598Z,99.11
2016-06-01T07:50:12.881Z,95.93
2016-06-01T07:51:12.931Z,99.89
2016-06-01T07:52:12.948Z,99.99
2016-06-01T07:53:12.967Z,99.99
2016-06-01T07:54:13.111Z,99.99
2016-06-01T07:55:25.770Z,99.99
2016-06-01T07:56:13.069Z,99.99
2016-06-01T07:57:38.759Z,99.99
2016-06-01T07:58:13.122Z,99.99
2016-06-01T07:59:13.155Z,99.99
2016-06-01T08:00:13.174Z,99.99
2016-06-01T08:01:13.191Z,99.99
2016-06-01T08:02:13.100Z,99.16
2016-06-01T08:03:13.260Z,99.99
2016-06-01T08:04:13.122Z,96.12
2016-06-01T08:05:13.311Z,96.36
2016-06-01T08:06:21.033Z,97.24
2016-06-01T08:07:13.349Z,95.01
2016-06-01T08:08:32.445Z,96.75
2016-06-01T08:09:13.572Z,93.66
2016-06-01T08:10:39.169Z,93.18
2016-06-01T08:11:23.171Z,92.98
2016-06-01T08:12:23.174Z,93.18
2016-06-01T08:13:26.287Z,94.14
2016-06-01T08:14:23.243Z,93.85
2016-06-01T08:15:23.277Z,88.49
2016-06-01T08:16:23.310Z,92.45
2016-06-01T08:17:23.188Z,89.31
2016-06-01T08:18:23.362Z,90.75
2016-06-01T08:19:23.396Z,86.99
2016-06-01T08:20:23.399Z,86.89
2016-06-01T08:21:23.434Z,88.92
2016-06-01T08:22:23.483Z,93.13
2016-06-01T08:23:23.485Z,92.11
2016-06-01T08:24:23.550Z,96.03
2016-06-01T08:25:23.398Z,99.26
2016-06-01T08:26:23.587Z,99.99
2016-06-01T08:27:23.621Z,98.92
2016-06-01T08:28:23.655Z,98.58
2016-06-01T08:29:23.673Z,99.99
2016-06-01T08:30:23.708Z,99.99
2016-06-01T08:31:23.711Z,99.99
2016-06-01T08:32:23.759Z,99.99
2016-06-01T08:33:23.621Z,98.78
2016-06-01T08:34:33.297Z,99.99
2016-06-01T08:35:33.314Z,99.99
2016-06-01T08:36:33.333Z,99.99
2016-06-01T08:37:36.414Z,99.99
2016-06-01T08:38:47.119Z,95.16
2016-06-01T08:39:33.419Z,93.66
2016-06-01T08:40:33.438Z,92.02
2016-06-01T08:41:33.487Z,91.35
2016-06-01T08:42:34.911Z,93.37
2016-06-01T08:43:33.524Z,91.73
2016-06-01T08:44:52.605Z,89.12
2016-06-01T08:45:33.591Z,90.23
2016-06-01T08:46:33.610Z,89.51
2016-06-01T08:47:33.644Z,89.65
2016-06-01T08:48:33.678Z,87.81
2016-06-01T08:49:33.712Z,87.76
2016-06-01T08:50:33.792Z,86.56
2016-06-01T08:51:52.967Z,90.03
2016-06-01T08:52:33.782Z,89.22
2016-06-01T08:54:43.898Z,91.49
2016-06-01T08:55:43.946Z,92.94
2016-06-01T08:56:43.965Z,90.47
2016-06-01T08:57:43.827Z,91.05
2016-06-01T08:58:44.017Z,88.93
2016-06-01T08:59:44.050Z,88.01
2016-06-01T09:00:44.070Z,86.75
2016-06-01T09:01:44.103Z,83.31
2016-06-01T09:02:47.169Z,82.1
2016-06-01T09:03:44.000Z,83.36
2016-06-01T09:04:50.549Z,81.32
2016-06-01T09:05:44.223Z,83.99
2016-06-01T09:06:44.305Z,83.12
2016-06-01T09:07:44.275Z,83.03
2016-06-01T09:08:44.310Z,81.71
2016-06-01T09:09:44.858Z,80.94
2016-06-01T09:10:44.361Z,80.49
2016-06-01T09:11:44.224Z,79.66
2016-06-01T09:12:44.399Z,81.65
2016-06-01T09:13:44.480Z,82.48
2016-06-01T09:14:44.482Z,82.73
2016-06-01T09:15:57.220Z,82.73
2016-06-01T09:16:44.560Z,82.45
2016-06-01T09:18:04.415Z,81.32
2016-06-01T09:18:48.222Z,81.62
2016-06-01T09:20:07.938Z,79.68
2016-06-01T09:20:51.978Z,81.81
2016-06-01T09:21:51.959Z,83.12
2016-06-01T09:22:52.000Z,83.99
2016-06-01T09:23:52.137Z,86.07
2016-06-01T09:24:52.476Z,86.22
2016-06-01T09:26:04.831Z,85.21
2016-06-01T09:26:52.150Z,84.28
2016-06-01T09:27:52.156Z,83.03
2016-06-01T09:28:53.614Z,84.91
2016-06-01T09:29:52.245Z,83.03
2016-06-01T09:31:05.001Z,82.54
2016-06-01T09:31:52.301Z,82.2
2016-06-01T09:32:52.337Z,83.7
2016-06-01T09:33:52.356Z,82.31
2016-06-01T09:34:52.391Z,81.48
2016-06-01T09:35:52.254Z,79.62
2016-06-01T09:36:52.445Z,77.59
2016-06-01T09:37:52.463Z,78.75
2016-06-01T09:38:52.622Z,77.5
2016-06-01T09:39:52.391Z,77.69
2016-06-01T09:40:55.425Z,78.27
2016-06-01T09:41:52.586Z,78.56
2016-06-01T09:42:52.651Z,78.85
2016-06-01T09:43:52.653Z,79.82
2016-06-01T09:44:52.687Z,77.78
2016-06-01T09:45:52.753Z,82.48
2016-06-01T09:46:55.771Z,81.19
2016-06-01T09:47:52.634Z,81.52
2016-06-01T09:49:05.543Z,80.46
2016-06-01T09:49:52.936Z,81.13
2016-06-01T09:50:52.861Z,79.58
2016-06-01T09:51:52.879Z,80.36
2016-06-01T09:52:52.913Z,79.14
2016-06-01T09:54:12.167Z,77.11
2016-06-01T09:54:53.292Z,76.95
2016-06-01T09:56:53.064Z,75.24
2016-06-01T09:57:53.067Z,74.28
2016-06-01T09:58:54.507Z,73.75
2016-06-01T09:59:53.119Z,73.82
2016-06-01T10:00:53.153Z,74.11
2016-06-01T10:01:53.172Z,74.11
2016-06-01T10:02:53.222Z,73.27
2016-06-01T10:03:53.067Z,73.85
2016-06-01T10:04:53.273Z,72.11
2016-06-01T10:05:53.277Z,72.24
2016-06-01T10:06:53.310Z,72.83
2016-06-01T10:07:53.203Z,71.76
2016-06-01T10:09:12.771Z,72.83
2016-06-01T10:09:57.271Z,74.34
2016-06-01T10:10:57.493Z,75.85
2016-06-01T10:11:57.449Z,77.69
2016-06-01T10:12:57.499Z,78.13
2016-06-01T10:13:57.516Z,77.84
2016-06-01T10:14:57.565Z,78.23
2016-06-01T10:16:10.319Z,79.58
2016-06-01T10:16:57.665Z,81.42
2016-06-01T10:18:16.857Z,78.52
2016-06-01T10:18:57.732Z,79.78
2016-06-01T10:21:13.100Z,80.65
2016-06-01T10:22:12.962Z,79.1
2016-06-01T10:23:13.153Z,79.39
2016-06-01T10:24:13.171Z,79
2016-06-01T10:25:13.065Z,79.2
2016-06-01T10:26:13.239Z,80.36
2016-06-01T10:27:26.006Z,78.81
2016-06-01T10:28:13.306Z,79.87
2016-06-01T10:29:13.309Z,79.2
2016-06-01T10:30:13.344Z,79.39
2016-06-01T10:31:13.377Z,79.87
2016-06-01T10:32:13.411Z,80.2
2016-06-01T10:33:26.164Z,78.36
2016-06-01T10:34:26.245Z,77.3
2016-06-01T10:35:13.482Z,76.95
2016-06-01T10:36:13.344Z,75.98
2016-06-01T10:37:13.549Z,75.56
2016-06-01T10:38:13.584Z,75.17
2016-06-01T10:39:33.524Z,76.33
2016-06-01T10:40:20.401Z,76.87
2016-06-01T10:41:20.577Z,77.07
2016-06-01T10:42:21.844Z,76.53
2016-06-01T10:43:20.644Z,75.17
2016-06-01T10:44:20.646Z,75.56
2016-06-01T10:45:20.743Z,75.85
2016-06-01T10:46:20.714Z,76.18
2016-06-01T10:47:39.936Z,73.18
2016-06-01T10:48:20.767Z,73.75
2016-06-01T10:49:52.082Z,75.4
2016-06-01T10:50:30.429Z,73.57
2016-06-01T10:51:30.463Z,73.47
2016-06-01T10:52:43.246Z,73.85
2016-06-01T10:53:30.514Z,74.34
2016-06-01T10:54:30.579Z,74.43
2016-06-01T10:55:30.895Z,72.98
2016-06-01T10:56:30.648Z,74.34
2016-06-01T10:57:32.166Z,74.53
2016-06-01T10:58:30.700Z,74.73
2016-06-01T10:59:30.531Z,75.37
2016-06-01T11:00:43.471Z,75.31
2016-06-01T11:01:30.756Z,73.47
2016-06-01T11:02:30.772Z,74.08
2016-06-01T11:03:30.807Z,73.75
2016-06-01T11:04:30.841Z,75.17
2016-06-01T11:05:30.875Z,73.75
2016-06-01T11:06:30.893Z,73.91
2016-06-01T11:07:43.708Z,73.33
2016-06-01T11:08:30.805Z,74.34
2016-06-01T11:09:30.902Z,72.11
2016-06-01T11:10:31.029Z,73.6
2016-06-01T11:11:31.079Z,72.79
2016-06-01T11:12:31.065Z,71.28
2016-06-01T11:13:50.287Z,70.89
2016-06-01T11:14:31.102Z,72.24
2016-06-01T11:15:31.136Z,71.08
2016-06-01T11:16:43.951Z,69.18
2016-06-01T11:17:43.954Z,69.21
2016-06-01T11:18:31.238Z,69.02
2016-06-01T11:19:31.272Z,66.14
2016-06-01T11:20:32.712Z,68.15
2016-06-01T11:21:31.324Z,64.78
2016-06-01T11:22:50.545Z,63.65
2016-06-01T11:23:31.314Z,65.01
2016-06-01T11:24:32.317Z,63.46
2016-06-01T11:25:32.945Z,64.26
2016-06-01T11:26:31.462Z,64.14
2016-06-01T11:27:31.481Z,64.23
2016-06-01T11:28:31.531Z,63.07
2016-06-01T11:29:31.549Z,63.98
2016-06-01T11:30:31.567Z,63.2
2016-06-01T11:31:31.600Z,63.59
2016-06-01T11:32:31.635Z,62.91
2016-06-01T11:33:31.653Z,63.56
2016-06-01T11:34:44.562Z,63.2
2016-06-01T11:35:33.144Z,62.91
2016-06-01T11:36:31.725Z,63.65
2016-06-01T11:37:31.789Z,64.92
2016-06-01T11:38:31.808Z,64.72
2016-06-01T11:39:32.295Z,64.82
2016-06-01T11:40:34.922Z,64.56
2016-06-01T11:41:34.987Z,65.17
2016-06-01T11:42:31.958Z,66.44
2016-06-01T11:43:31.993Z,67.37
2016-06-01T11:44:31.996Z,68.24
2016-06-01T11:45:31.889Z,69.79
2016-06-01T11:46:32.063Z,70.25
2016-06-01T11:47:32.191Z,70.57
2016-06-01T11:48:32.132Z,69.5
2016-06-01T11:49:32.149Z,68.54
2016-06-01T11:50:33.590Z,70.34
2016-06-01T11:51:32.218Z,71.12
2016-06-01T11:52:32.235Z,70.73
2016-06-01T11:53:32.270Z,69.37
2016-06-01T11:54:32.600Z,69.95
2016-06-01T11:55:32.822Z,69.37
2016-06-01T11:56:32.356Z,69.76
2016-06-01T11:57:35.421Z,69.41
2016-06-01T11:58:33.830Z,68.54
2016-06-01T11:59:32.301Z,69.12
2016-06-01T12:00:32.492Z,68.15
2016-06-01T12:01:51.698Z,70.57
2016-06-01T12:02:45.419Z,68.24
2016-06-01T12:03:32.765Z,69.41
2016-06-01T12:04:32.706Z,69.41
2016-06-01T12:05:32.740Z,69.6
2016-06-01T12:06:32.741Z,69.41
2016-06-01T12:07:32.730Z,69.37
2016-06-01T12:08:32.826Z,70.54
2016-06-01T12:09:45.485Z,70.25
2016-06-01T12:10:32.612Z,70.76
2016-06-01T12:11:58.522Z,67.85
2016-06-01T12:12:32.821Z,69.02
2016-06-01T12:13:32.855Z,68.05
2016-06-01T12:14:32.920Z,67.37
2016-06-01T12:15:32.907Z,67.85
2016-06-01T12:16:32.988Z,66.99
2016-06-01T12:17:32.990Z,66.69
2016-06-01T12:18:33.009Z,67.85
2016-06-01T12:19:45.762Z,68.73
2016-06-01T12:20:33.060Z,68.24
2016-06-01T12:21:33.079Z,66.99
2016-06-01T12:22:45.863Z,66.44
2016-06-01T12:23:33.194Z,66.63
2016-06-01T12:24:33.868Z,65.85
2016-06-01T12:25:33.699Z,66.34
2016-06-01T12:26:33.093Z,65.89
2016-06-01T12:27:33.267Z,67.4
2016-06-01T12:28:33.287Z,67.99
2016-06-01T12:29:33.320Z,67.02
2016-06-01T12:30:34.759Z,66.24
2016-06-01T12:31:33.373Z,66.44
2016-06-01T12:32:33.406Z,65.56
2016-06-01T12:33:33.455Z,65.27
2016-06-01T12:34:33.505Z,64.59
2016-06-01T12:35:33.492Z,64.88
2016-06-01T12:36:33.619Z,64.2
2016-06-01T12:37:33.561Z,64.95
2016-06-01T12:38:33.578Z,65.05
2016-06-01T12:39:52.831Z,65.14
2016-06-01T12:40:33.678Z,65.17
2016-06-01T12:41:33.649Z,64.78
2016-06-01T12:42:33.699Z,64.2
2016-06-01T12:43:46.577Z,64.01
2016-06-01T12:44:33.750Z,64.4
2016-06-01T12:45:33.799Z,64.4
2016-06-01T12:46:52.850Z,65.27
2016-06-01T12:47:33.727Z,64.78
2016-06-01T12:48:33.871Z,64.23
2016-06-01T12:49:33.905Z,64.72
2016-06-01T12:50:36.970Z,64.26
2016-06-01T12:51:33.957Z,62.71
2016-06-01T12:52:40.257Z,64.36
2016-06-01T12:53:34.010Z,63.88
2016-06-01T12:54:34.043Z,61.71
2016-06-01T12:55:46.796Z,64.14
2016-06-01T12:56:34.112Z,63.85
2016-06-01T12:57:34.129Z,63.65
2016-06-01T12:58:34.179Z,61.61
2016-06-01T12:59:34.182Z,60
2016-06-01T13:00:34.215Z,59.41
2016-06-01T13:01:34.093Z,59.8
2016-06-01T13:02:34.284Z,58.73